Overview Statistics Trail Chart Weather Telemetry Raw packets
 

This is the latest recevied weather packets stored in our database for station/object SV3AQT-13. If no packets are shown the sender has not sent any weather packets the latest 10 day(s).

<< 28 29 30 31 32 33 >>
Time Temp. Humidity Pressure Rain* Wind** Luminosity Snow
1788412000 23.33° C 76% 1016.2 hPa 0 mm 0 m/s - -
1788411398 22.22° C 77% 1016.2 hPa 0 mm 0 m/s - -
1788410800 21.11° C 77% 1016.2 hPa 0 mm 0 m/s - -
1788410199 20.56° C 76% 1016.2 hPa 0 mm 0 m/s - -
1788409600 20.56° C 76% 1016.2 hPa 0 mm 0 m/s - -
1788408998 20.56° C 76% 1016.2 hPa 0 mm 0 m/s - -
1788385577 23.89° C 63% 1016.2 hPa 0 mm 0 m/s - -
1788384978 23.89° C 66% 1016.2 hPa 0 mm 0 m/s - -
1788383776 23.33° C 69% 1016.2 hPa 0 mm 0 m/s - -
1788383176 23.33° C 68% 1016.2 hPa 0 mm 0 m/s - -
1788382576 23.33° C 71% 1016.2 hPa 0 mm 0 m/s - -
1788381976 23.33° C 69% 1016.5 hPa 0 mm 0 m/s - -
1788381379 23.89° C 67% 1016.5 hPa 0 mm 0 m/s - -
1788380797 25° C 63% 1016.5 hPa 0 mm 0 m/s - -
1788380176 25.56° C 59% 1016.5 hPa 0 mm 0 m/s - -
1788379578 25° C 62% 1016.5 hPa 0 mm 0 m/s - -
1788375977 26.11° C 60% 1016.9 hPa 0 mm 0 m/s - -
1788375376 26.67° C 58% 1016.5 hPa 0 mm 0 m/s - -
1788374776 26.11° C 60% 1016.5 hPa 0 mm 0 m/s - -
1788374175 25.56° C 66% 1016.5 hPa 0 mm 0 m/s - -
1788373577 25.56° C 71% 1016.5 hPa 0 mm 0 m/s - -
1788372976 25.56° C 73% 1016.5 hPa 0 mm 0 m/s - -
1788372378 25.56° C 75% 1016.2 hPa 0 mm 0 m/s - -
1788371777 26.11° C 74% 1016.2 hPa 0 mm 0 m/s - -
1788367510 29.44° C 65% 1015.9 hPa 0 mm 0 m/s - -

* Rain latest hour (hover to see other rain measurements)
** Current wind speed in m/s (hover to see current wind gust speed)